Time;durP1;ratioP1;P1;durP2;ratioP2;P2;SDS_P1;SDS_P2;PMS_P1;PMS_P2;Temp;Humidity;BMP_temperature;BMP_pressure;BME280_temperature;BME280_humidity;BME280_pressure;Samples;Min_cycle;Max_cycle;Signal;HPM_P1;HPM_P2
2021/03/23 00:01:16;;;;;;;5.83;5.20;;;7.70;99.90;;;;;;5130745;27;20968;-81
2021/03/23 00:03:46;;;;;;;6.63;4.40;;;7.70;99.90;;;;;;5124250;27;20429;-83
2021/03/23 00:06:16;;;;;;;6.67;5.17;;;7.80;99.90;;;;;;5127734;27;20879;-82
2021/03/23 00:08:46;;;;;;;7.57;5.80;;;7.80;99.90;;;;;;5120941;27;20442;-82
2021/03/23 00:11:15;;;;;;;8.97;5.40;;;7.80;99.90;;;;;;5106345;27;20972;-82
2021/03/23 00:13:44;;;;;;;9.03;5.30;;;7.80;99.90;;;;;;5106565;27;20453;-82
2021/03/23 00:16:12;;;;;;;6.27;4.80;;;7.70;99.90;;;;;;5129843;27;20472;-83
2021/03/23 00:18:41;;;;;;;8.23;4.90;;;7.70;99.90;;;;;;5126069;27;21072;-81
2021/03/23 00:21:09;;;;;;;7.93;4.30;;;7.80;99.90;;;;;;5121811;27;20863;-82
2021/03/23 00:23:37;;;;;;;9.23;6.27;;;7.70;99.90;;;;;;5124017;27;20453;-82
2021/03/23 00:26:05;;;;;;;9.37;5.90;;;7.70;99.90;;;;;;5110620;27;20465;-82
2021/03/23 00:28:33;;;;;;;8.33;5.97;;;7.70;99.90;;;;;;5126591;27;20485;-82
2021/03/23 00:31:01;;;;;;;9.70;6.07;;;7.60;99.90;;;;;;5105558;27;20508;-82
2021/03/23 00:33:28;;;;;;;8.20;5.93;;;7.60;99.90;;;;;;5107923;27;20534;-80
2021/03/23 00:35:59;;;;;;;7.63;4.60;;;7.60;99.90;;;;;;5124535;27;20441;-82
2021/03/23 00:38:28;;;;;;;8.63;5.80;;;7.70;99.90;;;;;;5115339;27;20451;-81
2021/03/23 00:40:56;;;;;;;9.80;5.90;;;7.70;99.90;;;;;;5107893;27;20804;-84
2021/03/23 00:43:24;;;;;;;7.43;5.20;;;8.00;99.90;;;;;;5126127;27;20460;-84
2021/03/23 00:45:51;;;;;;;8.43;6.00;;;7.70;99.90;;;;;;5123734;27;20449;-82
2021/03/23 00:48:21;;;;;;;11.73;6.07;;;7.70;99.90;;;;;;5127257;27;20471;-84
2021/03/23 00:50:48;;;;;;;7.20;5.53;;;7.30;99.90;;;;;;5103921;27;20485;-84
2021/03/23 00:53:16;;;;;;;7.60;5.20;;;7.60;99.90;;;;;;5112665;27;20465;-83
2021/03/23 00:55:43;;;;;;;6.80;5.53;;;7.60;99.90;;;;;;5122818;27;20515;-82
2021/03/23 00:58:10;;;;;;;10.07;6.07;;;7.70;99.90;;;;;;5124492;27;20206;-81
2021/03/23 01:00:38;;;;;;;6.23;5.13;;;7.70;99.90;;;;;;5124323;27;22376;-81
2021/03/23 01:03:06;;;;;;;8.13;5.50;;;7.70;99.90;;;;;;5110869;27;20970;-81
2021/03/23 01:05:35;;;;;;;10.10;5.90;;;7.70;99.90;;;;;;5121720;27;20196;-81
2021/03/23 01:08:03;;;;;;;11.10;7.47;;;7.80;99.90;;;;;;5135011;27;20822;-81
2021/03/23 01:10:32;;;;;;;12.23;6.90;;;7.70;99.90;;;;;;5129288;27;20533;-84
2021/03/23 01:12:59;;;;;;;11.17;5.97;;;7.70;99.90;;;;;;5123987;27;20467;-83
2021/03/23 01:15:29;;;;;;;6.57;5.90;;;7.70;99.90;;;;;;5110951;27;20466;-82
2021/03/23 01:17:58;;;;;;;5.90;4.70;;;7.70;99.90;;;;;;5124269;27;20462;-83
2021/03/23 01:20:27;;;;;;;10.90;6.97;;;7.70;99.90;;;;;;5123352;27;20467;-83
2021/03/23 01:22:54;;;;;;;8.20;6.00;;;7.70;99.90;;;;;;5133771;27;20456;-82
2021/03/23 01:25:22;;;;;;;10.57;6.85;;;7.60;99.90;;;;;;5124307;27;20461;-83
2021/03/23 01:27:50;;;;;;;8.37;5.87;;;7.60;99.90;;;;;;5126618;27;20231;-82
2021/03/23 01:30:19;;;;;;;9.43;7.33;;;7.60;99.90;;;;;;5123317;27;20503;-81
2021/03/23 01:32:47;;;;;;;8.77;6.27;;;7.60;99.90;;;;;;5122132;27;20467;-84
2021/03/23 01:35:16;;;;;;;12.27;7.37;;;7.60;99.90;;;;;;5112362;27;20467;-81
2021/03/23 01:37:43;;;;;;;10.00;6.73;;;7.60;99.90;;;;;;5116349;27;20453;-81
2021/03/23 01:40:12;;;;;;;9.53;7.30;;;7.60;99.90;;;;;;5124180;27;21279;-82
2021/03/23 01:42:42;;;;;;;14.23;8.87;;;7.70;99.90;;;;;;5124882;27;20467;-81
2021/03/23 01:45:19;;;;;;;12.60;6.73;;;7.90;99.90;;;;;;5116923;27;20484;-80
2021/03/23 01:47:47;;;;;;;11.77;7.87;;;7.60;99.90;;;;;;5135335;27;20456;-81
2021/03/23 01:50:17;;;;;;;14.30;8.33;;;7.90;99.90;;;;;;5121710;27;20474;-81
2021/03/23 01:52:47;;;;;;;10.23;7.03;;;7.60;99.90;;;;;;5130772;27;20453;-82
2021/03/23 01:55:14;;;;;;;9.30;6.43;;;7.60;99.90;;;;;;5135594;27;20828;-81
2021/03/23 01:57:45;;;;;;;10.33;6.83;;;7.60;99.90;;;;;;5106911;27;20487;-79
2021/03/23 02:00:13;;;;;;;9.43;6.63;;;7.60;99.90;;;;;;5133897;27;21022;-81
2021/03/23 02:02:40;;;;;;;10.38;7.30;;;7.60;99.90;;;;;;5132307;27;20941;-81
2021/03/23 02:05:20;;;;;;;11.00;7.67;;;7.60;99.90;;;;;;5127673;27;20200;-81
2021/03/23 02:07:47;;;;;;;8.17;6.77;;;7.60;99.90;;;;;;5133855;27;20457;-82
2021/03/23 02:10:15;;;;;;;12.00;7.53;;;7.60;99.90;;;;;;5128914;27;20560;-82
2021/03/23 02:12:44;;;;;;;10.40;6.43;;;7.60;99.90;;;;;;5129026;27;22237;-82
2021/03/23 02:15:12;;;;;;;11.10;7.80;;;7.70;99.90;;;;;;5111052;27;20455;-81
2021/03/23 02:17:40;;;;;;;13.77;8.60;;;7.60;99.90;;;;;;5130763;27;20462;-80
2021/03/23 02:20:11;;;;;;;11.63;7.40;;;7.90;99.90;;;;;;5107024;27;20484;-81
2021/03/23 02:22:41;;;;;;;12.03;7.27;;;7.50;99.90;;;;;;5104662;27;20457;-81
2021/03/23 02:25:12;;;;;;;16.35;8.18;;;7.80;99.90;;;;;;5131866;27;21077;-81
2021/03/23 02:27:39;;;;;;;18.13;8.10;;;7.50;99.90;;;;;;5103448;27;20215;-83
2021/03/23 02:30:12;;;;;;;12.67;7.97;;;7.60;99.90;;;;;;5107293;27;20478;-84
2021/03/23 02:32:39;;;;;;;17.47;8.97;;;7.60;99.90;;;;;;5132955;27;20453;-82
2021/03/23 02:35:17;;;;;;;18.13;9.87;;;7.60;99.90;;;;;;5132106;27;20496;-85
2021/03/23 02:37:45;;;;;;;12.97;8.87;;;7.60;99.90;;;;;;5111134;27;20460;-85
2021/03/23 02:40:13;;;;;;;16.00;9.77;;;7.60;99.90;;;;;;5109307;27;20480;-84
2021/03/23 02:42:41;;;;;;;12.80;9.47;;;7.50;99.90;;;;;;5133615;27;20448;-85
2021/03/23 02:45:09;;;;;;;16.60;10.70;;;7.50;99.90;;;;;;5126963;27;20470;-84
2021/03/23 02:47:36;;;;;;;16.40;11.07;;;7.50;99.90;;;;;;5102149;27;21111;-85
2021/03/23 02:50:05;;;;;;;22.07;11.63;;;7.60;99.90;;;;;;5110307;27;20561;-84
2021/03/23 02:52:32;;;;;;;18.10;10.80;;;7.50;99.90;;;;;;5108918;27;20456;-83
2021/03/23 02:55:00;;;;;;;19.93;10.90;;;7.50;99.90;;;;;;5124479;27;21119;-82
2021/03/23 02:57:27;;;;;;;19.17;12.20;;;7.50;99.90;;;;;;5124122;27;20456;-83
2021/03/23 02:59:54;;;;;;;21.53;12.80;;;7.80;99.90;;;;;;5131524;27;20537;-84
2021/03/23 03:02:22;;;;;;;20.13;13.40;;;7.50;99.90;;;;;;5132804;27;20959;-82
2021/03/23 03:04:49;;;;;;;24.73;13.50;;;7.50;99.90;;;;;;5120378;27;20487;-85
2021/03/23 03:07:16;;;;;;;18.10;11.70;;;7.50;99.90;;;;;;5108231;27;20476;-85
2021/03/23 03:09:43;;;;;;;20.65;12.98;;;7.50;99.90;;;;;;5125409;27;20506;-84
2021/03/23 03:12:13;;;;;;;18.40;13.00;;;7.50;99.90;;;;;;5106810;27;20200;-83
2021/03/23 03:14:40;;;;;;;21.57;12.43;;;7.50;99.90;;;;;;5124038;27;20510;-84
2021/03/23 03:17:07;;;;;;;18.25;12.32;;;7.60;99.90;;;;;;5131883;27;20528;-84
2021/03/23 03:19:35;;;;;;;15.83;11.30;;;7.50;99.90;;;;;;5131625;27;20211;-84
2021/03/23 03:22:02;;;;;;;18.90;11.80;;;7.50;99.90;;;;;;5107059;27;20889;-85
2021/03/23 03:24:29;;;;;;;20.03;12.90;;;7.60;99.90;;;;;;5101426;27;21067;-85
2021/03/23 03:26:57;;;;;;;21.07;13.07;;;7.50;99.90;;;;;;5107063;28;20453;-84
2021/03/23 03:29:25;;;;;;;19.23;12.50;;;7.50;99.90;;;;;;5112760;28;21047;-84
2021/03/23 03:31:52;;;;;;;19.53;11.90;;;7.60;99.90;;;;;;5123750;27;20455;-85
2021/03/23 03:34:20;;;;;;;15.93;11.00;;;7.90;99.90;;;;;;5097908;28;20501;-85
2021/03/23 03:36:48;;;;;;;18.20;11.47;;;7.50;99.90;;;;;;5130067;27;20465;-84
2021/03/23 03:39:15;;;;;;;17.10;11.50;;;7.50;99.90;;;;;;5127964;27;21429;-84
2021/03/23 03:41:42;;;;;;;18.90;12.40;;;7.50;99.90;;;;;;5103736;28;20469;-84
2021/03/23 03:44:09;;;;;;;18.37;11.50;;;7.80;99.90;;;;;;5118231;28;20466;-83
2021/03/23 03:46:37;;;;;;;17.30;12.27;;;7.50;99.90;;;;;;5126900;27;20468;-84
2021/03/23 03:49:04;;;;;;;21.30;12.47;;;7.50;99.90;;;;;;5097893;28;20478;-83
2021/03/23 03:51:32;;;;;;;18.90;11.55;;;7.40;99.90;;;;;;5106511;28;20456;-84
2021/03/23 03:54:00;;;;;;;17.70;12.87;;;7.50;99.90;;;;;;5128522;28;20195;-85
2021/03/23 03:56:27;;;;;;;21.50;13.20;;;7.50;99.90;;;;;;5131050;28;20518;-84
2021/03/23 03:58:56;;;;;;;20.17;12.30;;;7.40;99.90;;;;;;5101081;28;20480;-83
2021/03/23 04:01:23;;;;;;;20.73;12.10;;;7.50;99.90;;;;;;5130617;27;20449;-84
2021/03/23 04:03:52;;;;;;;21.47;13.47;;;7.50;99.90;;;;;;5108992;28;20438;-83
2021/03/23 04:06:33;;;;;;;19.60;11.60;;;7.50;99.90;;;;;;5100487;28;20444;-85
2021/03/23 04:09:00;;;;;;;18.00;11.60;;;7.40;99.90;;;;;;5100306;28;20479;-84
2021/03/23 04:11:27;;;;;;;14.80;11.10;;;7.40;99.90;;;;;;5105772;28;20568;-84
2021/03/23 04:13:55;;;;;;;18.20;11.80;;;7.40;99.90;;;;;;5129846;28;20439;-84
2021/03/23 04:16:23;;;;;;;24.73;13.37;;;7.40;99.90;;;;;;5112119;28;20545;-83
2021/03/23 04:18:50;;;;;;;20.13;12.80;;;7.40;99.90;;;;;;5111495;28;20524;-85
2021/03/23 04:21:18;;;;;;;17.07;11.27;;;7.40;99.90;;;;;;5122958;28;20445;-85
2021/03/23 04:23:46;;;;;;;14.53;11.20;;;7.40;99.90;;;;;;5135397;27;20459;-85
2021/03/23 04:26:13;;;;;;;16.03;11.10;;;7.40;99.90;;;;;;5118911;28;20444;-84
2021/03/23 04:28:41;;;;;;;20.50;12.80;;;7.40;99.90;;;;;;5117488;27;20459;-83
2021/03/23 04:31:12;;;;;;;16.33;10.93;;;7.40;99.90;;;;;;5119930;28;20457;-83
2021/03/23 04:33:39;;;;;;;19.40;12.03;;;7.40;99.90;;;;;;5103308;27;20381;-81
2021/03/23 04:36:08;;;;;;;18.70;12.10;;;7.50;99.90;;;;;;5114551;27;20971;-83
2021/03/23 04:38:39;;;;;;;17.77;12.27;;;7.40;99.90;;;;;;5103967;28;20454;-82
2021/03/23 04:41:07;;;;;;;26.83;13.00;;;7.40;99.90;;;;;;5133232;27;20467;-82
2021/03/23 04:43:36;;;;;;;17.03;11.07;;;7.40;99.90;;;;;;5114668;27;20461;-82
2021/03/23 04:46:04;;;;;;;17.00;10.93;;;7.40;99.90;;;;;;5128594;27;20451;-83
2021/03/23 04:48:31;;;;;;;18.70;13.60;;;7.40;99.90;;;;;;5114517;27;20454;-83
2021/03/23 04:50:59;;;;;;;17.33;11.18;;;7.40;99.90;;;;;;5131899;27;20496;-84
2021/03/23 04:53:29;;;;;;;17.47;11.80;;;7.40;99.90;;;;;;5127974;27;20196;-83
2021/03/23 04:55:58;;;;;;;19.70;12.13;;;7.40;99.90;;;;;;5111852;27;20450;-83
2021/03/23 04:58:26;;;;;;;23.00;13.27;;;7.40;99.90;;;;;;5131172;27;20469;-82
2021/03/23 05:00:54;;;;;;;17.10;12.20;;;7.30;99.90;;;;;;5119166;27;20489;-83
2021/03/23 05:03:26;;;;;;;20.75;13.98;;;7.40;99.90;;;;;;5119129;27;20433;-82
2021/03/23 05:05:55;;;;;;;18.40;13.00;;;7.30;99.90;;;;;;5115560;27;20200;-84
2021/03/23 05:08:22;;;;;;;18.70;12.20;;;7.40;99.90;;;;;;5128924;27;20510;-82
2021/03/23 05:10:50;;;;;;;16.77;10.23;;;7.40;99.90;;;;;;5105394;27;20529;-85
2021/03/23 05:13:18;;;;;;;14.20;11.20;;;7.60;99.90;;;;;;5141149;27;20441;-79
2021/03/23 05:15:45;;;;;;;17.43;11.83;;;7.40;99.90;;;;;;5117392;27;21016;-81
2021/03/23 05:18:13;;;;;;;16.57;11.33;;;7.50;99.90;;;;;;5115107;27;20459;-79
2021/03/23 05:20:40;;;;;;;16.30;11.27;;;7.40;99.90;;;;;;5106075;27;20538;-83
2021/03/23 05:23:09;;;;;;;16.03;11.43;;;7.40;99.90;;;;;;5130919;27;20523;-81
2021/03/23 05:25:36;;;;;;;19.40;13.10;;;7.40;99.90;;;;;;5102395;27;20822;-83
2021/03/23 05:28:04;;;;;;;18.87;12.73;;;7.60;99.90;;;;;;5113627;27;20499;-82
2021/03/23 05:30:32;;;;;;;16.60;11.00;;;7.40;99.90;;;;;;5126714;27;20579;-83
2021/03/23 05:32:59;;;;;;;18.30;11.30;;;7.40;99.90;;;;;;5132374;27;20469;-84
2021/03/23 05:35:27;;;;;;;19.60;10.73;;;7.40;99.90;;;;;;5128965;27;20542;-83
2021/03/23 05:37:54;;;;;;;19.10;12.23;;;7.40;99.90;;;;;;5121180;27;20527;-83
2021/03/23 05:40:25;;;;;;;17.33;10.43;;;7.40;99.90;;;;;;5130494;27;20550;-83
2021/03/23 05:43:03;;;;;;;17.27;11.07;;;7.50;99.90;;;;;;5106339;28;20482;-83
2021/03/23 05:45:37;;;;;;;17.80;12.53;;;7.50;99.90;;;;;;5123620;27;20910;-82
2021/03/23 05:48:19;;;;;;;20.13;12.10;;;7.40;99.90;;;;;;5127959;27;21006;-83
2021/03/23 05:50:53;;;;;;;19.37;12.27;;;7.40;99.90;;;;;;5113785;27;20830;-83
2021/03/23 05:53:27;;;;;;;18.98;12.48;;;7.40;99.90;;;;;;5126745;27;20690;-82
2021/03/23 05:55:58;;;;;;;13.73;9.80;;;7.40;99.90;;;;;;5130839;27;20201;-82
2021/03/23 05:58:28;;;;;;;16.27;11.68;;;7.40;99.90;;;;;;5124423;27;20453;-82
2021/03/23 06:00:59;;;;;;;18.85;11.82;;;7.40;99.90;;;;;;5129884;27;20222;-82
2021/03/23 06:03:30;;;;;;;17.80;11.43;;;7.40;99.90;;;;;;5104375;27;20204;-82
2021/03/23 06:06:03;;;;;;;17.63;11.83;;;7.50;99.90;;;;;;5102103;27;20462;-82
2021/03/23 06:08:34;;;;;;;25.03;13.40;;;7.50;99.90;;;;;;5115308;27;20486;-83
2021/03/23 06:11:24;;;;;;;18.73;11.90;;;7.50;99.90;;;;;;5119865;27;21031;-84
2021/03/23 06:14:02;;;;;;;17.63;11.30;;;7.50;99.90;;;;;;5114258;27;20464;-82
2021/03/23 06:16:38;;;;;;;19.77;11.80;;;7.50;99.90;;;;;;5110980;27;20546;-84
2021/03/23 06:19:16;;;;;;;19.00;11.67;;;7.50;99.90;;;;;;5101135;27;20506;-83
2021/03/23 06:21:48;;;;;;;22.83;13.37;;;7.50;99.90;;;;;;5100359;27;20452;-85
2021/03/23 06:24:25;;;;;;;21.27;11.67;;;7.50;99.90;;;;;;5101941;27;20452;-82
2021/03/23 06:26:59;;;;;;;19.40;11.93;;;7.60;99.90;;;;;;5104653;27;20464;-84
2021/03/23 06:30:03;;;;;;;18.10;11.57;;;7.50;99.90;;;;;;5120222;27;20990;-83
2021/03/23 06:32:42;;;;;;;23.03;11.83;;;7.50;99.90;;;;;;5037631;28;20207;-81
2021/03/23 06:35:13;;;;;;;21.27;11.80;;;7.60;99.90;;;;;;5110785;27;20562;-83
2021/03/23 06:37:42;;;;;;;20.07;12.23;;;7.50;99.90;;;;;;5104121;27;20466;-82
2021/03/23 06:40:11;;;;;;;18.53;11.50;;;7.50;99.90;;;;;;5105539;27;20509;-84
2021/03/23 06:42:41;;;;;;;22.83;11.90;;;7.50;99.90;;;;;;5120340;27;20462;-83
2021/03/23 06:45:21;;;;;;;24.03;13.07;;;7.60;99.90;;;;;;5102964;27;20541;-82
2021/03/23 06:47:50;;;;;;;23.93;13.80;;;7.60;99.90;;;;;;5103849;27;20450;-82
2021/03/23 06:50:34;;;;;;;19.00;11.27;;;7.60;99.90;;;;;;5122044;27;22529;-82
2021/03/23 06:53:11;;;;;;;21.02;11.68;;;7.60;99.90;;;;;;5111211;27;20460;-82
2021/03/23 06:55:39;;;;;;;20.30;12.57;;;7.60;99.90;;;;;;5119759;27;20259;-83
2021/03/23 06:58:23;;;;;;;21.33;12.70;;;7.50;99.90;;;;;;5122554;27;20454;-81
2021/03/23 07:01:10;;;;;;;23.63;13.10;;;7.50;99.90;;;;;;5115868;27;20527;-84
2021/03/23 07:03:39;;;;;;;24.83;14.27;;;7.50;99.90;;;;;;5103233;27;20549;-83
2021/03/23 07:06:25;;;;;;;16.70;11.93;;;7.50;99.90;;;;;;5125159;27;20482;-84
2021/03/23 07:09:05;;;;;;;25.20;13.40;;;7.90;99.90;;;;;;5108868;27;20662;-81
2021/03/23 07:11:52;;;;;;;21.60;12.70;;;7.70;99.90;;;;;;5111729;27;20487;-83
2021/03/23 07:14:27;;;;;;;27.07;12.90;;;7.70;99.90;;;;;;5111466;27;20454;-83
2021/03/23 07:17:29;;;;;;;20.23;12.70;;;7.70;99.90;;;;;;5129585;27;20510;-84
2021/03/23 07:20:04;;;;;;;19.57;12.63;;;7.70;99.90;;;;;;5115467;27;20576;-82
2021/03/23 07:22:44;;;;;;;22.33;13.83;;;7.70;99.90;;;;;;5125177;27;20950;-86
2021/03/23 07:25:31;;;;;;;26.43;15.27;;;7.70;99.90;;;;;;5108333;27;20841;-84
2021/03/23 07:28:24;;;;;;;24.47;15.13;;;7.80;99.90;;;;;;5124344;27;20460;-82
2021/03/23 07:30:59;;;;;;;20.23;13.50;;;7.70;99.90;;;;;;5098615;27;20483;-83
2021/03/23 07:33:52;;;;;;;25.27;14.80;;;7.70;99.90;;;;;;5128674;27;20454;-83
2021/03/23 07:36:26;;;;;;;24.03;13.60;;;7.80;99.90;;;;;;5097915;27;20534;-85
2021/03/23 07:38:58;;;;;;;24.23;14.27;;;7.80;99.90;;;;;;5122071;28;20483;-83
2021/03/23 07:41:31;;;;;;;24.87;14.50;;;7.80;99.90;;;;;;5122613;27;20458;-84
2021/03/23 07:44:03;;;;;;;21.03;13.83;;;7.80;99.90;;;;;;5106798;27;20470;-82
2021/03/23 07:46:36;;;;;;;20.13;13.13;;;7.90;99.90;;;;;;5110519;27;20750;-81
2021/03/23 07:49:34;;;;;;;21.13;14.27;;;7.90;99.90;;;;;;5109772;28;20485;-83
2021/03/23 07:52:15;;;;;;;21.70;13.50;;;8.00;99.90;;;;;;5126204;27;20488;-85
2021/03/23 07:54:43;;;;;;;22.10;14.63;;;8.00;99.90;;;;;;5127297;27;20835;-84
2021/03/23 07:57:42;;;;;;;26.07;14.13;;;8.00;99.90;;;;;;5127901;27;20203;-83
2021/03/23 08:00:19;;;;;;;18.33;12.80;;;8.10;99.90;;;;;;5119666;27;20475;-81
2021/03/23 08:03:25;;;;;;;23.20;15.43;;;8.10;99.90;;;;;;5120103;27;20857;-82
2021/03/23 08:05:59;;;;;;;22.57;14.07;;;8.10;99.90;;;;;;5115911;27;20469;-81
2021/03/23 08:08:45;;;;;;;23.53;13.00;;;8.10;99.90;;;;;;5113672;27;20457;-82
2021/03/23 08:11:31;;;;;;;20.90;14.13;;;8.10;99.90;;;;;;5126639;27;20489;-83
2021/03/23 08:14:16;;;;;;;23.73;14.77;;;8.20;99.90;;;;;;5129660;27;20510;-83
2021/03/23 08:17:00;;;;;;;25.43;15.10;;;8.20;99.90;;;;;;5125685;27;20944;-82
2021/03/23 08:19:54;;;;;;;24.57;14.03;;;8.10;99.90;;;;;;5108315;27;20471;-82
2021/03/23 08:22:52;;;;;;;26.87;15.13;;;8.20;99.90;;;;;;5105175;27;20755;-81
2021/03/23 08:25:30;;;;;;;29.98;17.63;;;8.30;99.90;;;;;;5106108;27;20569;-83
2021/03/23 08:28:12;;;;;;;23.13;14.17;;;8.30;99.90;;;;;;5129838;27;20203;-81
2021/03/23 08:30:53;;;;;;;26.03;15.60;;;8.20;99.90;;;;;;5108346;27;20487;-82
2021/03/23 08:33:35;;;;;;;22.50;13.90;;;8.20;99.90;;;;;;5110409;27;21062;-81
2021/03/23 08:36:16;;;;;;;24.03;13.47;;;8.30;99.90;;;;;;5108593;27;20571;-82
2021/03/23 08:38:51;;;;;;;22.23;12.17;;;8.30;99.90;;;;;;5114842;27;21142;-81
2021/03/23 08:41:32;;;;;;;17.97;13.10;;;8.40;99.90;;;;;;5122909;27;21061;-82
2021/03/23 08:44:01;;;;;;;18.27;12.33;;;8.40;99.90;;;;;;5141012;27;20482;-82
2021/03/23 08:46:31;;;;;;;21.13;12.80;;;8.40;99.90;;;;;;5124922;27;20509;-82
2021/03/23 08:49:01;;;;;;;17.90;11.47;;;8.50;99.90;;;;;;5123175;27;20485;-82
2021/03/23 08:51:31;;;;;;;21.97;12.47;;;8.40;99.90;;;;;;5141639;27;20467;-79
2021/03/23 08:54:00;;;;;;;20.03;11.53;;;8.50;99.90;;;;;;5119071;27;20462;-80
2021/03/23 08:56:57;;;;;;;19.97;11.90;;;8.50;99.90;;;;;;5134740;27;20442;-80
2021/03/23 08:59:49;;;;;;;18.67;11.30;;;8.60;99.90;;;;;;5134587;27;20462;-82
2021/03/23 09:02:50;;;;;;;16.83;9.93;;;8.70;99.90;;;;;;5131744;27;20477;-79
2021/03/23 09:05:38;;;;;;;16.20;9.90;;;8.60;99.90;;;;;;5123733;27;20444;-81
2021/03/23 09:08:39;;;;;;;18.40;10.73;;;8.60;99.90;;;;;;5124739;27;20453;-81
2021/03/23 09:11:10;;;;;;;16.50;9.53;;;8.60;99.90;;;;;;5128874;27;20476;-83
2021/03/23 09:14:25;;;;;;;16.23;9.13;;;8.60;99.90;;;;;;5136320;27;20452;-84
2021/03/23 09:17:17;;;;;;;13.80;9.60;;;8.60;99.90;;;;;;5032728;28;20467;-83
2021/03/23 09:19:55;;;;;;;19.30;11.17;;;8.60;99.90;;;;;;5106831;27;20482;-81
2021/03/23 09:22:37;;;;;;;15.13;9.50;;;8.70;99.90;;;;;;5105647;27;20459;-81
2021/03/23 09:25:47;;;;;;;15.43;9.77;;;8.90;99.90;;;;;;5127430;27;20445;-79
2021/03/23 09:28:44;;;;;;;16.70;9.80;;;8.80;99.90;;;;;;5135361;27;20942;-84
2021/03/23 09:31:15;;;;;;;18.37;10.70;;;8.80;99.90;;;;;;5132795;27;20538;-79
2021/03/23 09:33:49;;;;;;;12.40;7.87;;;8.90;99.90;;;;;;5114664;27;20450;-80
2021/03/23 09:36:41;;;;;;;14.73;8.53;;;8.90;99.90;;;;;;5131728;27;20459;-79
2021/03/23 09:39:43;;;;;;;15.60;9.33;;;8.90;99.90;;;;;;5129432;27;20997;-79
2021/03/23 09:42:22;;;;;;;10.60;7.67;;;9.00;99.90;;;;;;5123705;27;20442;-80
2021/03/23 09:45:03;;;;;;;12.70;8.40;;;9.00;99.90;;;;;;5105284;27;20464;-80
2021/03/23 09:47:41;;;;;;;11.03;7.03;;;9.00;99.90;;;;;;5114214;27;20449;-79
2021/03/23 09:50:25;;;;;;;10.77;7.30;;;9.00;99.90;;;;;;5127750;27;20562;-82
2021/03/23 09:53:00;;;;;;;11.83;7.80;;;9.00;99.90;;;;;;5115693;27;20446;-81
2021/03/23 09:55:28;;;;;;;13.30;6.23;;;9.10;99.90;;;;;;5143480;27;20448;-80
2021/03/23 09:57:56;;;;;;;8.37;5.53;;;9.00;99.90;;;;;;5119276;27;20447;-82
2021/03/23 10:00:28;;;;;;;11.13;6.30;;;9.00;99.90;;;;;;5120205;27;20464;-80
2021/03/23 10:02:56;;;;;;;9.57;6.63;;;9.00;99.90;;;;;;5109199;27;20917;-79
2021/03/23 10:05:29;;;;;;;8.97;6.60;;;9.00;99.90;;;;;;5111122;27;20478;-80
2021/03/23 10:08:13;;;;;;;5.80;4.70;;;9.00;99.90;;;;;;5126393;27;20542;-80
2021/03/23 10:10:41;;;;;;;7.90;4.27;;;8.90;99.90;;;;;;5103343;27;20507;-80
2021/03/23 10:13:21;;;;;;;6.00;4.13;;;8.80;99.90;;;;;;5106785;27;20674;-82
2021/03/23 10:15:49;;;;;;;6.33;4.30;;;8.90;99.90;;;;;;5129252;27;20468;-81
2021/03/23 10:18:22;;;;;;;6.70;4.97;;;9.00;99.90;;;;;;5109625;27;20460;-80
2021/03/23 10:20:57;;;;;;;7.60;4.67;;;9.00;99.90;;;;;;5132661;27;20471;-81
2021/03/23 10:23:26;;;;;;;5.80;4.23;;;9.10;99.90;;;;;;5110131;27;20543;-80
2021/03/23 10:25:55;;;;;;;6.23;4.07;;;9.10;99.90;;;;;;5127805;27;20861;-80
2021/03/23 10:28:26;;;;;;;7.10;4.33;;;9.10;99.90;;;;;;5124046;27;20545;-77
2021/03/23 10:30:58;;;;;;;6.67;4.60;;;9.00;99.90;;;;;;5128003;27;20489;-80
2021/03/23 10:33:30;;;;;;;6.83;4.10;;;8.90;99.90;;;;;;5106449;27;20469;-79
2021/03/23 10:36:00;;;;;;;8.20;5.60;;;8.90;99.90;;;;;;5125162;27;20456;-79
2021/03/23 10:38:43;;;;;;;5.10;3.63;;;8.90;99.90;;;;;;5123124;27;20492;-79
2021/03/23 10:41:34;;;;;;;7.67;4.33;;;9.00;99.90;;;;;;5122322;27;20455;-79
2021/03/23 10:44:24;;;;;;;6.57;3.43;;;9.00;99.90;;;;;;5125662;27;20522;-79
2021/03/23 10:46:52;;;;;;;5.93;4.50;;;8.90;99.90;;;;;;5120889;27;20678;-80
2021/03/23 10:49:26;;;;;;;4.23;3.83;;;8.90;99.90;;;;;;5125693;27;20476;-79
2021/03/23 10:51:57;;;;;;;5.13;3.80;;;9.00;99.90;;;;;;5119436;27;20483;-77
2021/03/23 10:54:27;;;;;;;6.70;3.97;;;9.10;99.90;;;;;;5133757;27;20458;-79
2021/03/23 10:56:56;;;;;;;5.37;3.60;;;9.10;99.90;;;;;;5130056;27;20541;-79
2021/03/23 10:59:34;;;;;;;6.83;4.40;;;9.10;99.90;;;;;;5122784;27;20512;-79
2021/03/23 11:02:19;;;;;;;4.77;3.53;;;9.10;99.90;;;;;;5131169;27;20455;-80
2021/03/23 11:04:59;;;;;;;5.17;3.27;;;9.10;99.90;;;;;;5116975;27;20444;-80
2021/03/23 11:07:33;;;;;;;9.10;3.23;;;9.20;99.90;;;;;;5108849;27;20551;-79
2021/03/23 11:10:01;;;;;;;4.33;3.27;;;9.20;99.90;;;;;;5126096;27;20573;-78
2021/03/23 11:12:28;;;;;;;5.80;3.10;;;9.10;99.90;;;;;;5103724;27;20464;-79
2021/03/23 11:14:58;;;;;;;4.43;2.90;;;9.20;99.90;;;;;;5123581;27;20472;-80
2021/03/23 11:17:28;;;;;;;5.53;4.10;;;9.20;99.90;;;;;;5115056;27;20202;-77
2021/03/23 11:20:05;;;;;;;8.90;3.17;;;9.20;99.90;;;;;;5121490;27;20956;-79
2021/03/23 11:22:36;;;;;;;3.30;2.73;;;9.20;99.90;;;;;;5125596;27;20449;-79
2021/03/23 11:25:05;;;;;;;223.50;86.00;;;9.30;99.90;;;;;;5125684;27;20460;-78
2021/03/23 11:27:32;;;;;;;51.37;20.17;;;9.40;99.90;;;;;;5128028;27;20519;-78
2021/03/23 11:30:00;;;;;;;4.37;3.23;;;9.40;99.90;;;;;;5126234;27;20491;-77
2021/03/23 11:32:27;;;;;;;2.37;2.10;;;9.40;99.90;;;;;;5126729;27;20454;-78
2021/03/23 11:34:55;;;;;;;2.90;2.37;;;9.50;99.90;;;;;;5129200;27;20461;-78
2021/03/23 11:37:22;;;;;;;3.97;2.53;;;9.40;99.90;;;;;;5118762;27;20465;-79
2021/03/23 11:39:53;;;;;;;2.50;1.97;;;9.40;99.90;;;;;;5124705;27;20480;-77
2021/03/23 11:42:28;;;;;;;2.97;2.67;;;9.50;99.90;;;;;;5116693;27;20463;-78
2021/03/23 11:45:02;;;;;;;3.50;2.40;;;9.60;99.90;;;;;;5102191;27;20446;-78
2021/03/23 11:47:40;;;;;;;3.47;2.73;;;9.50;99.90;;;;;;5113001;28;20448;-78
2021/03/23 11:50:11;;;;;;;4.53;2.70;;;9.50;99.30;;;;;;5125932;27;20563;-80
2021/03/23 11:52:39;;;;;;;4.33;2.80;;;9.50;99.90;;;;;;5127992;27;20470;-80
2021/03/23 11:55:11;;;;;;;4.15;3.28;;;9.50;99.90;;;;;;5123880;27;20928;-78
2021/03/23 11:57:39;;;;;;;4.07;3.00;;;9.50;99.90;;;;;;5124545;27;20268;-79
2021/03/23 12:00:09;;;;;;;3.97;2.97;;;9.50;99.50;;;;;;5105236;27;20487;-79
2021/03/23 12:02:37;;;;;;;3.63;2.90;;;9.50;99.20;;;;;;5133163;27;20449;-79
2021/03/23 12:05:07;;;;;;;3.40;3.00;;;9.60;99.40;;;;;;5104444;27;20461;-80
2021/03/23 12:07:47;;;;;;;3.93;3.23;;;9.50;98.70;;;;;;5126629;27;20460;-79
2021/03/23 12:10:23;;;;;;;11.70;7.27;;;9.60;98.70;;;;;;5124304;27;20497;-80
2021/03/23 12:12:58;;;;;;;8.67;4.90;;;9.70;99.70;;;;;;5126814;27;20816;-79
2021/03/23 12:15:33;;;;;;;6.60;4.53;;;9.60;99.70;;;;;;5140329;27;20546;-80
2021/03/23 12:18:07;;;;;;;6.20;4.70;;;9.60;99.90;;;;;;5119266;27;20461;-79
2021/03/23 12:20:38;;;;;;;5.67;4.63;;;9.60;99.90;;;;;;5126104;28;20452;-79
2021/03/23 12:23:07;;;;;;;6.57;4.50;;;9.60;99.90;;;;;;5122927;27;20962;-80
2021/03/23 12:25:35;;;;;;;5.43;4.27;;;9.50;99.90;;;;;;5124353;27;20873;-81
2021/03/23 12:28:03;;;;;;;8.70;5.50;;;9.50;99.90;;;;;;5124374;27;20537;-79
2021/03/23 12:30:30;;;;;;;5.77;3.60;;;9.50;99.90;;;;;;5102628;27;20595;-80
2021/03/23 12:32:58;;;;;;;7.23;4.23;;;9.50;99.90;;;;;;5125283;27;20459;-79
2021/03/23 12:35:28;;;;;;;6.37;4.37;;;9.50;99.90;;;;;;5111630;27;20462;-79
2021/03/23 12:37:58;;;;;;;6.07;4.47;;;9.60;99.90;;;;;;5124729;27;20447;-79
2021/03/23 12:40:27;;;;;;;5.57;4.03;;;9.50;99.90;;;;;;5100520;28;20470;-78
2021/03/23 12:43:07;;;;;;;4.07;3.60;;;9.50;99.90;;;;;;5103710;28;20541;-78
2021/03/23 12:45:37;;;;;;;5.70;4.60;;;9.60;99.90;;;;;;5121293;27;20450;-77
2021/03/23 12:48:06;;;;;;;7.20;4.50;;;9.50;99.90;;;;;;5120519;27;20512;-77
2021/03/23 12:50:33;;;;;;;5.70;4.67;;;9.60;99.90;;;;;;5111221;27;20504;-79
2021/03/23 12:53:05;;;;;;;4.83;4.10;;;9.60;99.90;;;;;;5106046;27;20460;-79
2021/03/23 12:55:33;;;;;;;6.50;3.80;;;9.50;99.90;;;;;;5128008;27;20454;-79
2021/03/23 12:58:03;;;;;;;8.20;4.80;;;9.50;99.90;;;;;;5111594;27;20499;-79
2021/03/23 13:00:34;;;;;;;5.30;4.10;;;9.60;99.90;;;;;;5129272;27;20463;-78
2021/03/23 13:03:03;;;;;;;9.00;5.20;;;9.70;99.90;;;;;;5111763;27;20442;-80
2021/03/23 13:05:31;;;;;;;6.13;4.33;;;9.60;99.90;;;;;;5130436;27;20447;-79
2021/03/23 13:08:01;;;;;;;6.60;4.80;;;9.50;97.60;;;;;;5101235;27;20448;-79
2021/03/23 13:10:32;;;;;;;6.47;5.10;;;9.60;99.90;;;;;;5122223;27;20475;-80
2021/03/23 13:13:01;;;;;;;5.30;4.20;;;9.60;99.10;;;;;;5130213;27;20445;-78
2021/03/23 13:15:30;;;;;;;7.30;4.90;;;9.60;99.90;;;;;;5111502;27;20709;-78